Have a Safe July 4th! 

Flight Track Log - Related Links

Times and Time Zones

All times are in EDT time to prevent confusion due to time zone crossing. See the N9231Y flight status page for this flight to view local times or setup timezone preferences in your user account.

Time Position Orientation Groundspeed Altitude Reporting Facility
EDT Latitude Longitude Course Direction KTS MPH feet Rate Location/Type
Sun 02:47:04 PM 28.5500 -81.3167 53° Northeast 108 124 500  Level Orlando TRACON
Sun 02:48:35 PM 28.5833 -81.2667 360° North 130 150 1,500 382 Climbing Orlando TRACON
Sun 02:49:41 PM 28.6333 -81.2667 291° West 169 194 1,500 250 Level Orlando TRACON
Sun 02:50:35 PM 28.6500 -81.3167 249° West 164 189 2,000 263 Climbing Orlando TRACON
Sun 02:51:35 PM 28.6333 -81.3667 249° West 188 216 2,000 365 Level Orlando TRACON
Sun 02:52:30 PM 28.6167 -81.4167 270° West 169 194 2,700 645 Climbing Orlando TRACON
Sun 02:53:36 PM 28.6167 -81.4667 249° West 167 192 3,300 619 Climbing Orlando TRACON
Sun 02:54:36 PM 28.6000 -81.5167 270° West 157 181 4,000 750 Climbing Orlando TRACON
Sun 02:55:36 PM 28.6000 -81.5667 270° West 157 181 4,800 893 Climbing Orlando TRACON
Sun 02:56:37 PM 28.6000 -81.6167 285° West 151 174 5,800 832 Climbing Orlando TRACON
Sun 02:58:58 PM 28.6267 -81.7314 303° West 163 188 7,600 746 Climbing Jacksonville Center
Sun 02:59:58 PM 28.6522 -81.7758 301° West 157 181 8,300 800 Climbing Jacksonville Center
Sun 03:00:58 PM 28.6756 -81.8206 303° West 163 188 9,200 800 Climbing Jacksonville Center
Sun 03:01:58 PM 28.6967 -81.8583 295° West 163 188 9,900 800 Climbing Jacksonville Center
Sun 03:02:58 PM 28.7158 -81.9056 296° West 163 188 10,800 850 Climbing Jacksonville Center
Sun 03:03:58 PM 28.7372 -81.9550 297° West 163 188 11,600 800 Climbing Jacksonville Center
Sun 03:04:58 PM 28.7583 -82.0022 305° West 163 188 12,400 850 Climbing Jacksonville Center
Sun 03:05:58 PM 28.7858 -82.0469 308° West 168 193 13,300 850 Climbing Jacksonville Center
Sun 03:06:58 PM 28.8131 -82.0869 305° West 168 193 14,100 850 Climbing Jacksonville Center
Sun 03:07:58 PM 28.8425 -82.1342 306° West 168 193 15,000 800 Climbing Jacksonville Center
Sun 03:08:58 PM 28.8722 -82.1814 306° West 168 193 15,700 800 Climbing Jacksonville Center
Sun 03:09:58 PM 28.8994 -82.2239 300° West 168 193 16,600 750 Climbing Jacksonville Center
Sun 03:10:58 PM 28.9247 -82.2733 310° West 173 199 17,200 650 Climbing Jacksonville Center
Sun 03:11:58 PM 28.9564 -82.3158 305° West 178 205 17,900 700 Climbing Jacksonville Center
Sun 03:12:58 PM 28.9836 -82.3608 298° West 178 205 18,600 550 Climbing Jacksonville Center
Sun 03:13:58 PM 29.0067 -82.4106 296° West 178 205 19,000 600 Climbing Jacksonville Center
Sun 03:14:58 PM 29.0278 -82.4603 298° West 178 205 19,800 500 Climbing Jacksonville Center
Sun 03:15:58 PM 29.0508 -82.5103 297° West 178 205 20,000 100 Climbing Jacksonville Center
Sun 03:16:58 PM 29.0761 -82.5672 303° West 184 212 20,000  Level Jacksonville Center
Sun 03:17:58 PM 29.1056 -82.6192 304° West 190 219 20,000  Level Jacksonville Center
Sun 03:18:58 PM 29.1389 -82.6761 301° West 202 232 20,000  Level Jacksonville Center
Sun 03:19:58 PM 29.1683 -82.7333 303° West 208 239 20,000  Level Jacksonville Center
Sun 03:20:58 PM 29.1997 -82.7878 304° West 208 239 20,000  Level Jacksonville Center
Sun 03:21:58 PM 29.2311 -82.8403 299° West 208 239 20,000  Level Jacksonville Center
Sun 03:22:58 PM 29.2581 -82.8950 303° West 208 239 20,000  Level Jacksonville Center
Sun 03:23:58 PM 29.2894 -82.9497 301° West 208 239 20,000  Level Jacksonville Center
Sun 03:24:58 PM 29.3186 -83.0044 304° West 208 239 20,000  Level Jacksonville Center
Sun 03:25:58 PM 29.3500 -83.0569 301° West 208 239 20,000  Level Jacksonville Center
Sun 03:26:58 PM 29.3792 -83.1119 304° West 208 239 20,000  Level Jacksonville Center
Sun 03:27:58 PM 29.4103 -83.1644 301° West 203 234 20,000  Level Jacksonville Center
Sun 03:28:58 PM 29.4394 -83.2192 304° West 203 234 20,000  Level Jacksonville Center
Sun 03:29:58 PM 29.4706 -83.2719 300° West 203 234 20,000  Level Jacksonville Center
Sun 03:30:58 PM 29.4994 -83.3292 304° West 203 234 20,000  Level Jacksonville Center
Sun 03:31:58 PM 29.5306 -83.3819 301° West 203 234 20,000  Level Jacksonville Center
Sun 03:32:58 PM 29.5597 -83.4369 299° West 203 234 20,000  Level Jacksonville Center
Sun 03:33:58 PM 29.5867 -83.4919 301° West 203 234 20,000  Level Jacksonville Center
Sun 03:34:58 PM 29.6156 -83.5472 298° West 203 234 20,000  Level Jacksonville Center
Sun 03:35:58 PM 29.6425 -83.6047 302° West 203 234 20,000  Level Jacksonville Center
Sun 03:36:58 PM 29.6733 -83.6622 306° West 203 234 20,000  Level Jacksonville Center
Sun 03:37:58 PM 29.7064 -83.7150 288° West 203 234 20,000  Level Jacksonville Center
Sun 03:38:58 PM 29.7228 -83.7728 303° West 198 228 20,000  Level Jacksonville Center
Sun 03:39:58 PM 29.7536 -83.8281 300° West 198 228 20,000  Level Jacksonville Center
Sun 03:40:58 PM 29.7803 -83.8808 292° West 198 228 20,000  Level Jacksonville Center
Sun 03:41:58 PM 29.8008 -83.9408 280° West 198 228 20,000  Level Jacksonville Center
Sun 03:42:58 PM 29.8108 -84.0033 278° West 198 228 20,000  Level Jacksonville Center
Sun 03:43:58 PM 29.8186 -84.0656 282° West 198 228 20,000  Level Jacksonville Center
Sun 03:44:58 PM 29.8306 -84.1281 280° West 198 228 20,000  Level Jacksonville Center
Sun 03:45:58 PM 29.8403 -84.1903 287° West 198 228 20,000  Level Jacksonville Center
Sun 03:46:58 PM 29.8564 -84.2506 282° West 198 228 20,000  Level Jacksonville Center
Sun 03:47:58 PM 29.8683 -84.3128 285° West 203 234 20,000  Level Jacksonville Center
Sun 03:48:58 PM 29.8822 -84.3731 284° West 203 234 20,000  Level Jacksonville Center
Sun 03:49:58 PM 29.8961 -84.4356 285° West 203 234 20,000  Level Jacksonville Center
Sun 03:50:58 PM 29.9100 -84.4956 285° West 203 234 20,000 Level Jacksonville Center
Sun 04:11:46 PM 30.1922 -85.7786 283° West 210 242 20,100 Climbing Jacksonville Center
Sun 04:22:55 PM 30.3325 -86.4928 287° West 203 234 20,100  Level Jacksonville Center
Sun 04:23:44 PM 30.3458 -86.5439 281° West 204 235 20,100  Level Jacksonville Center
Sun 04:24:45 PM 30.3564 -86.6067 285° West 205 236 20,100  Level Jacksonville Center
Sun 04:25:46 PM 30.3714 -86.6700 282° West 203 234 20,100  Level Jacksonville Center
Sun 04:26:46 PM 30.3839 -86.7356 284° West 204 235 20,100  Level Jacksonville Center
Sun 04:27:41 PM 30.3967 -86.7939 283° West 203 234 20,100  Level Jacksonville Center
Sun 04:28:48 PM 30.4111 -86.8667 284° West 204 235 20,100  Level Jacksonville Center
Sun 04:29:49 PM 30.4239 -86.9250 276° West 204 235 20,100  Level Jacksonville Center
Sun 04:30:49 PM 30.4303 -86.9928 244° Southwest 203 234 20,100 -261 Level Jacksonville Center
Sun 04:31:44 PM 30.4075 -87.0472 258° West 211 243 19,600 -621 Descending Jacksonville Center
Sun 04:32:45 PM 30.3947 -87.1164 302° West 236 272 18,900 -590 Descending Jacksonville Center
Sun 04:33:46 PM 30.4264 -87.1756 303° West 229 264 18,400 -563 Descending Jacksonville Center
Sun 04:34:53 PM 30.4675 -87.2497 302° West 225 259 17,700 -661 Descending Jacksonville Center
Sun 04:35:53 PM 30.4989 -87.3089 298° West 227 261 17,000 -694 Descending Jacksonville Center
Sun 04:36:54 PM 30.5300 -87.3756 277° West 225 259 16,300 -738 Descending Jacksonville Center
Sun 04:37:55 PM 30.5378 -87.4481 284° West 224 258 15,500 -738 Descending Jacksonville Center
Sun 04:38:56 PM 30.5522 -87.5164 276° West 224 258 14,800 -885 Descending Jacksonville Center
Sun 04:39:57 PM 30.5597 -87.5939 283° West 234 269 13,700 -1,082 Descending Jacksonville Center
Sun 04:47:15 PM 30.6408 -88.0118 282° West  Level FlightAware Approximate
Sun 04:48:15 PM 30.6516 -88.0692 282° West  Level FlightAware Approximate
Sun 04:49:15 PM 30.6623 -88.1266 283° West  Level FlightAware Approximate
Sun 04:50:15 PM 30.6735 -88.1839 290° West  Level FlightAware Approximate
Sun 04:51:15 PM 30.6903 -88.2393 289° West  Level Estimated
Sun 04:52:15 PM 30.7072 -88.2947 109° East  Level Estimated
Sun 04:53:15 PM 30.6903 -88.2393 289° West  Level Estimated
Sun 04:54:15 PM 30.7072 -88.2947 114° Southeast  Level Estimated
Sun 04:55:15 PM 30.6833 -88.2333 114° Southeast  Level FlightAware Approximate

Login

Don't have an account? Register now (free) for customized features, flight alerts, and more!